Tuesday, January 23, 2018, 7:17 AM EST
Back to Local

KSMQ, Somerville Somerset Airport

Location: Bedminster, NJ, United States Lat: 40.617
Local Time: 7:17 AM EST (12:17 GMT) Lon: -74.667
Time Zone: US/Eastern Elev: 104 ft

Show me the last for .
Show Decoded

2018-01-23 07:07 METAR KSMQ 231207Z AUTO 31004KT 2 1/2SM -RA BR OVC010 06/06 A2974 RMK AO2 CIG
                 007V012 P0001 T00560056 =
2018-01-23 06:53 METAR KSMQ 231153Z AUTO 30003KT 4SM -RA BR BKN010 BKN015 OVC021 06/06 A2975 RMK
                 AO2 SLP075 P0031 60051 70051 T00560056 10056 20011 56044 =
2018-01-23 06:41 METAR KSMQ 231141Z AUTO 00000KT 3SM -RA BR FEW007 BKN013 OVC023 06/06 A2975 RMK
                 AO2 P0031 T00560056 =
2018-01-23 06:32 METAR KSMQ 231132Z AUTO 00000KT 1 3/4SM RA BR SCT007 BKN015 OVC026 06/06 A2976
                 RMK AO2 PRESFR P0030 T00560056 =
2018-01-23 05:53 METAR KSMQ 231053Z AUTO 32003KT 1 3/4SM -RA BR OVC007 05/05 A2979 RMK AO2 LTG
                 DSNT NE RAB04 SLP088 P0020 T00500050 =
2018-01-23 05:46 METAR KSMQ 231046Z AUTO 33004KT 1 1/2SM RA BR BKN007 OVC012 06/06 A2979 RMK AO2
                 RAB04 P0019 T00560056 =
2018-01-23 05:38 METAR KSMQ 231038Z AUTO 02003KT 1 1/4SM RA BR BKN010 OVC018 06/06 A2980 RMK AO2
                 RAB04 P0016 T00560056 =
2018-01-23 05:25 METAR KSMQ 231025Z AUTO 01004KT 3/4SM +RA BR FEW008 BKN012 OVC020 05/05 A2981
                 RMK AO2 RAB04 P0010 T00500050 =
2018-01-23 04:53 METAR KSMQ 230953Z AUTO 00000KT 1 3/4SM BR SCT008 BKN028 OVC035 04/04 A2983 RMK
                 AO2 SLP103 T00390039 =
2018-01-23 04:49 METAR KSMQ 230949Z AUTO 00000KT 1 3/4SM BR SCT008 BKN028 OVC035 04/04 A2984 RMK
                 AO2 =
2018-01-23 03:53 METAR KSMQ 230853Z AUTO 34004KT 1 1/4SM BR OVC006 03/03 A2988 RMK AO2 SLP119
                 T00330033 58029 =
2018-01-23 03:20 METAR KSMQ 230820Z AUTO 00000KT 1SM BR OVC006 02/02 A2989 RMK AO2 T00170017 =
2018-01-23 03:18 METAR KSMQ 230818Z AUTO 00000KT 3/4SM BR OVC008 02/02 A2989 RMK AO2 T00170017 =
2018-01-23 02:53 METAR KSMQ 230753Z AUTO 31003KT 1/2SM FG OVC010 02/02 A2992 RMK AO2 SLP134
                 T00170017 =
2018-01-23 02:33 METAR KSMQ 230733Z AUTO 33004KT 1/4SM FG BKN011 BKN100 01/01 A2993 RMK AO2
                 T00110011 =
2018-01-23 02:26 METAR KSMQ 230726Z AUTO 00000KT 1/2SM FG SCT011 BKN100 02/02 A2993 RMK AO2
                 T00170017 =
2018-01-23 01:53 METAR KSMQ 230653Z AUTO 00000KT 1 3/4SM BR FEW016 OVC110 02/02 A2995 RMK AO2
                 SLP143 T00220022 =
2018-01-23 01:33 METAR KSMQ 230633Z AUTO 00000KT 1 3/4SM BR FEW017 BKN090 OVC110 02/02 A2995 RMK
                 AO2 T00220022 =
2018-01-23 01:26 METAR KSMQ 230626Z AUTO 00000KT 2SM BR BKN090 OVC110 02/02 A2996 RMK AO2
                 T00220022 =
2018-01-23 00:53 METAR KSMQ 230553Z AUTO 00000KT 1 3/4SM BR FEW007 BKN110 03/03 A2996 RMK AO2
                 SLP148 T00280028 10067 20017 58028 =
2018-01-23 00:30 METAR KSMQ 230530Z AUTO 29003KT 1 3/4SM BR FEW009 FEW100 02/02 A2999 RMK AO2
                 T00220022 =
2018-01-22 23:53 METAR KSMQ 230453Z AUTO 00000KT 2 1/2SM BR CLR 03/03 A3002 RMK AO2 SLP168
                 T00280028 401170017 =
2018-01-22 23:30 METAR KSMQ 230430Z AUTO 06003KT 3SM BR SCT023 04/04 A3002 RMK AO2 T00440039 =
2018-01-22 22:53 METAR KSMQ 230353Z AUTO 00000KT 3SM BR FEW010 BKN025 04/04 A3005 RMK AO2 SLP176
                 T00440039 =
2018-01-22 22:12 METAR KSMQ 230312Z AUTO 02003KT 3SM BR SCT010 04/04 A3005 RMK AO2 T00440039 =
2018-01-22 21:53 METAR KSMQ 230253Z AUTO VRB03KT 3SM BR BKN010 04/04 A3005 RMK AO2 SLP176
                 T00440039 58019 =
2018-01-22 21:33 METAR KSMQ 230233Z AUTO 00000KT 4SM BR BKN011 05/04 A3006 RMK AO2 T00500039 =
2018-01-22 20:53 METAR KSMQ 230153Z AUTO 05003KT 4SM BR FEW010 05/04 A3007 RMK AO2 SLP183
                 T00500039 =
2018-01-22 19:53 METAR KSMQ 230053Z AUTO 05005KT 4SM BR CLR 06/04 A3010 RMK AO2 SLP193 T00560039
                 =
2018-01-22 18:53 METAR KSMQ 222353Z AUTO 07004KT 6SM BR CLR 07/04 A3010 RMK AO2 SLP195 T00670044
                 10117 20067 52002 =
2018-01-22 17:53 METAR KSMQ 222253Z AUTO 00000KT 6SM HZ CLR 08/04 A3010 RMK AO2 SLP194 T00780039
                 =
2018-01-22 16:53 METAR KSMQ 222153Z AUTO 08003KT 4SM HZ SCT120 09/04 A3010 RMK AO2 SLP192
                 T00890044 =
2018-01-22 15:53 METAR KSMQ 222053Z AUTO 12005KT 4SM HZ OVC100 11/05 A3010 RMK AO2 SLP192
                 T01060050 55007 =
2018-01-22 14:53 METAR KSMQ 221953Z AUTO 10003KT 5SM HZ SCT060 BKN070 OVC110 11/05 A3008 RMK AO2
                 SLP186 T01110050 =
2018-01-22 13:53 METAR KSMQ 221853Z AUTO 09003KT 6SM HZ BKN055 OVC070 12/06 A3009 RMK AO2 SLP191
                 T01170056 =
2018-01-22 12:53 METAR KSMQ 221753Z AUTO 16005KT 6SM HZ BKN050 11/05 A3012 RMK AO2 SLP199 60000
                 T01060050 10106 20017 58020 =
2018-01-22 11:53 METAR KSMQ 221653Z AUTO 19004KT 6SM HZ SCT110 10/05 A3015 RMK AO2 SLP210
                 T01000050 =
2018-01-22 10:53 METAR KSMQ 221553Z AUTO 6SM HZ BKN110 09/06 A3017 RMK AO2 SLP218 T00890056 =
2018-01-22 09:53 METAR KSMQ 221453Z AUTO 00000KT 5SM BR OVC100 06/04 A3017 RMK AO2 SLP219 60000
                 T00560044 51013 =
2018-01-22 08:53 METAR KSMQ 221353Z AUTO 00000KT 5SM BR OVC100 04/04 A3016 RMK AO2 RAB39E50
                 SLP216 P0000 T00440044 =
2018-01-22 07:53 METAR KSMQ 221253Z AUTO 00000KT 3SM BR OVC095 03/03 A3015 RMK AO2 SLP211
                 T00280028 =

Support USWX by starting your Amazon purchase here.